sensor_id;sensor_type;location;lat;lon;timestamp;pressure;altitude;pressure_sealevel;temperature;humidity
60061;BME280;45933;51.336;12.612;2022-11-15T00:01:36;99779.53;;;9.37;59.96
60061;BME280;45933;51.336;12.612;2022-11-15T00:04:05;99777.81;;;9.36;59.91
60061;BME280;45933;51.336;12.612;2022-11-15T00:06:31;99777.81;;;9.36;59.95
60061;BME280;45933;51.336;12.612;2022-11-15T00:09:00;99773.47;;;9.37;59.67
60061;BME280;45933;51.336;12.612;2022-11-15T00:11:26;99766.56;;;9.34;59.76
60061;BME280;45933;51.336;12.612;2022-11-15T00:13:54;99770.03;;;9.33;60.23
60061;BME280;45933;51.336;12.612;2022-11-15T00:16:20;99760.53;;;9.26;60.79
60061;BME280;45933;51.336;12.612;2022-11-15T00:18:45;99764.84;;;9.27;60.20
60061;BME280;45933;51.336;12.612;2022-11-15T00:21:12;99767.47;;;9.29;60.68
60061;BME280;45933;51.336;12.612;2022-11-15T00:23:37;99765.72;;;9.29;59.98
60061;BME280;45933;51.336;12.612;2022-11-15T00:26:03;99764.84;;;9.27;60.48
60061;BME280;45933;51.336;12.612;2022-11-15T00:28:29;99758.81;;;9.24;60.96
60061;BME280;45933;51.336;12.612;2022-11-15T00:31:03;99761.41;;;9.28;60.26
60061;BME280;45933;51.336;12.612;2022-11-15T00:33:29;99762.28;;;9.24;60.52
60061;BME280;45933;51.336;12.612;2022-11-15T00:36:00;99760.53;;;9.26;60.40
60061;BME280;45933;51.336;12.612;2022-11-15T00:38:30;99751.84;;;9.27;60.33
60061;BME280;45933;51.336;12.612;2022-11-15T00:40:56;99754.50;;;9.20;61.04
60061;BME280;45933;51.336;12.612;2022-11-15T00:43:21;99755.34;;;9.22;61.19
60061;BME280;45933;51.336;12.612;2022-11-15T00:45:46;99752.75;;;9.23;60.78
60061;BME280;45933;51.336;12.612;2022-11-15T00:48:11;99755.34;;;9.22;61.11
60061;BME280;45933;51.336;12.612;2022-11-15T00:50:37;99744.94;;;9.25;60.76
60061;BME280;45933;51.336;12.612;2022-11-15T00:53:02;99749.25;;;9.23;60.87
60061;BME280;45933;51.336;12.612;2022-11-15T00:55:27;99745.78;;;9.25;60.73
60061;BME280;45933;51.336;12.612;2022-11-15T00:57:53;99751.00;;;9.24;60.42
60061;BME280;45933;51.336;12.612;2022-11-15T01:00:18;99745.81;;;9.24;61.06
60061;BME280;45933;51.336;12.612;2022-11-15T01:02:43;99744.94;;;9.23;60.77
60061;BME280;45933;51.336;12.612;2022-11-15T01:05:09;99754.47;;;9.21;60.79
60061;BME280;45933;51.336;12.612;2022-11-15T01:07:34;99750.16;;;9.20;61.21
60061;BME280;45933;51.336;12.612;2022-11-15T01:10:00;99753.66;;;9.18;61.50
60061;BME280;45933;51.336;12.612;2022-11-15T01:12:25;99742.38;;;9.15;61.12
60061;BME280;45933;51.336;12.612;2022-11-15T01:14:51;99738.91;;;9.18;61.33
60061;BME280;45933;51.336;12.612;2022-11-15T01:17:16;99732.81;;;9.21;61.09
60061;BME280;45933;51.336;12.612;2022-11-15T01:19:41;99734.56;;;9.23;60.75
60061;BME280;45933;51.336;12.612;2022-11-15T01:22:07;99732.81;;;9.21;60.57
60061;BME280;45933;51.336;12.612;2022-11-15T01:24:32;99725.88;;;9.21;60.87
60061;BME280;45933;51.336;12.612;2022-11-15T01:26:57;99720.66;;;9.21;60.87
60061;BME280;45933;51.336;12.612;2022-11-15T01:29:23;99723.28;;;9.21;61.06
60061;BME280;45933;51.336;12.612;2022-11-15T01:31:48;99719.81;;;9.21;61.15
60061;BME280;45933;51.336;12.612;2022-11-15T01:34:13;99711.16;;;9.19;61.45
60061;BME280;45933;51.336;12.612;2022-11-15T01:36:40;99705.97;;;9.14;61.95
60061;BME280;45933;51.336;12.612;2022-11-15T01:39:05;99718.06;;;9.23;61.61
60061;BME280;45933;51.336;12.612;2022-11-15T01:41:32;99714.63;;;9.16;61.79
60061;BME280;45933;51.336;12.612;2022-11-15T01:47:00;99703.28;;;9.28;62.05
60061;BME280;45933;51.336;12.612;2022-11-15T01:49:27;99704.09;;;9.39;61.42
60061;BME280;45933;51.336;12.612;2022-11-15T01:51:56;99713.53;;;9.52;60.70
60061;BME280;45933;51.336;12.612;2022-11-15T01:54:23;99712.66;;;9.55;60.73
60061;BME280;45933;51.336;12.612;2022-11-15T01:56:54;99708.31;;;9.52;61.52
60061;BME280;45933;51.336;12.612;2022-11-15T01:59:21;99704.78;;;9.59;61.15
60061;BME280;45933;51.336;12.612;2022-11-15T02:01:47;99695.16;;;9.72;60.36
60061;BME280;45933;51.336;12.612;2022-11-15T02:04:23;99692.47;;;9.83;59.74
60061;BME280;45933;51.336;12.612;2022-11-15T02:06:50;99686.50;;;9.72;60.38
60061;BME280;45933;51.336;12.612;2022-11-15T02:09:16;99693.34;;;9.83;60.29
60061;BME280;45933;51.336;12.612;2022-11-15T02:11:41;99698.53;;;9.85;59.70
60061;BME280;45933;51.336;12.612;2022-11-15T02:14:08;99682.91;;;9.85;59.73
60061;BME280;45933;51.336;12.612;2022-11-15T02:17:44;99687.16;;;9.97;59.41
60061;BME280;45933;51.336;12.612;2022-11-15T02:28:44;99671.56;;;9.92;59.23
60061;BME280;45933;51.336;12.612;2022-11-15T02:36:45;99661.19;;;9.86;58.97
60061;BME280;45933;51.336;12.612;2022-11-15T02:42:28;99656.06;;;9.78;59.79
60061;BME280;45933;51.336;12.612;2022-11-15T02:45:23;99651.72;;;9.79;59.18
60061;BME280;45933;51.336;12.612;2022-11-15T02:47:51;99651.75;;;9.77;59.64
60061;BME280;45933;51.336;12.612;2022-11-15T02:50:21;99643.06;;;9.77;59.58
60061;BME280;45933;51.336;12.612;2022-11-15T02:52:49;99645.69;;;9.77;59.08
60061;BME280;45933;51.336;12.612;2022-11-15T02:55:33;99647.38;;;9.82;59.05
60061;BME280;45933;51.336;12.612;2022-11-15T03:00:53;99650.88;;;9.77;59.38
60061;BME280;45933;51.336;12.612;2022-11-15T03:03:46;99650.88;;;9.77;59.22
60061;BME280;45933;51.336;12.612;2022-11-15T03:09:23;99654.38;;;9.76;59.09
60061;BME280;45933;51.336;12.612;2022-11-15T03:12:03;99649.16;;;9.76;58.98
60061;BME280;45933;51.336;12.612;2022-11-15T03:14:34;99649.19;;;9.73;58.82
60061;BME280;45933;51.336;12.612;2022-11-15T03:19:47;99650.97;;;9.64;59.38
60061;BME280;45933;51.336;12.612;2022-11-15T03:22:17;99650.97;;;9.66;59.17
60061;BME280;45933;51.336;12.612;2022-11-15T03:24:47;99649.25;;;9.65;59.18
60061;BME280;45933;51.336;12.612;2022-11-15T03:27:17;99651.00;;;9.63;59.67
60061;BME280;45933;51.336;12.612;2022-11-15T03:29:48;99647.53;;;9.62;58.96
60061;BME280;45933;51.336;12.612;2022-11-15T03:32:19;99638.88;;;9.59;59.27
60061;BME280;45933;51.336;12.612;2022-11-15T03:34:57;99638.03;;;9.60;58.95
60061;BME280;45933;51.336;12.612;2022-11-15T03:37:37;99638.03;;;9.58;59.12
60061;BME280;45933;51.336;12.612;2022-11-15T03:40:06;99632.00;;;9.52;59.54
60061;BME280;45933;51.336;12.612;2022-11-15T03:45:27;99637.25;;;9.50;59.54
60061;BME280;45933;51.336;12.612;2022-11-15T03:48:01;99630.31;;;9.49;59.24
60061;BME280;45933;51.336;12.612;2022-11-15T03:50:29;99629.50;;;9.44;59.32
60061;BME280;45933;51.336;12.612;2022-11-15T03:52:55;99633.84;;;9.40;60.05
60061;BME280;45933;51.336;12.612;2022-11-15T03:55:21;99635.56;;;9.38;60.08
60061;BME280;45933;51.336;12.612;2022-11-15T03:57:50;99635.56;;;9.38;59.57
60061;BME280;45933;51.336;12.612;2022-11-15T04:00:16;99638.22;;;9.35;59.85
60061;BME280;45933;51.336;12.612;2022-11-15T04:02:42;99639.09;;;9.36;60.02
60061;BME280;45933;51.336;12.612;2022-11-15T04:05:07;99635.63;;;9.32;60.27
60061;BME280;45933;51.336;12.612;2022-11-15T04:07:33;99633.03;;;9.34;60.03
60061;BME280;45933;51.336;12.612;2022-11-15T04:09:58;99631.28;;;9.34;60.12
60061;BME280;45933;51.336;12.612;2022-11-15T04:12:35;99634.78;;;9.33;60.29
60061;BME280;45933;51.336;12.612;2022-11-15T04:15:11;99630.44;;;9.32;60.20
60061;BME280;45933;51.336;12.612;2022-11-15T04:17:42;99636.56;;;9.28;60.47
60061;BME280;45933;51.336;12.612;2022-11-15T04:20:11;99634.78;;;9.32;60.25
60061;BME280;45933;51.336;12.612;2022-11-15T04:22:57;99636.50;;;9.31;60.69
60061;BME280;45933;51.336;12.612;2022-11-15T04:25:42;99622.66;;;9.31;60.48
60061;BME280;45933;51.336;12.612;2022-11-15T04:28:08;99622.66;;;9.31;60.05
60061;BME280;45933;51.336;12.612;2022-11-15T04:30:34;99621.75;;;9.32;60.09
60061;BME280;45933;51.336;12.612;2022-11-15T04:32:59;99618.28;;;9.33;60.16
60061;BME280;45933;51.336;12.612;2022-11-15T04:35:24;99620.88;;;9.33;60.50
60061;BME280;45933;51.336;12.612;2022-11-15T04:37:50;99617.44;;;9.34;60.05
60061;BME280;45933;51.336;12.612;2022-11-15T04:40:15;99615.75;;;9.28;60.86
60061;BME280;45933;51.336;12.612;2022-11-15T04:42:42;99620.94;;;9.30;60.88
60061;BME280;45933;51.336;12.612;2022-11-15T04:45:10;99609.66;;;9.29;60.62
60061;BME280;45933;51.336;12.612;2022-11-15T04:47:35;99607.94;;;9.25;60.63
60061;BME280;45933;51.336;12.612;2022-11-15T04:50:01;99610.63;;;9.16;61.86
60061;BME280;45933;51.336;12.612;2022-11-15T04:52:26;99615.75;;;9.22;61.33
60061;BME280;45933;51.336;12.612;2022-11-15T04:54:51;99601.88;;;9.26;61.01
60061;BME280;45933;51.336;12.612;2022-11-15T04:57:17;99608.78;;;9.27;61.38
60061;BME280;45933;51.336;12.612;2022-11-15T04:59:42;99607.09;;;9.25;61.42
60061;BME280;45933;51.336;12.612;2022-11-15T05:02:08;99609.63;;;9.31;60.71
60061;BME280;45933;51.336;12.612;2022-11-15T05:04:33;99614.78;;;9.37;60.45
60061;BME280;45933;51.336;12.612;2022-11-15T05:06:58;99610.44;;;9.37;60.52
60061;BME280;45933;51.336;12.612;2022-11-15T05:09:24;99613.91;;;9.39;60.37
60061;BME280;45933;51.336;12.612;2022-11-15T05:11:49;99612.16;;;9.38;59.91
60061;BME280;45933;51.336;12.612;2022-11-15T05:14:15;99613.03;;;9.37;60.31
60061;BME280;45933;51.336;12.612;2022-11-15T05:16:40;99614.75;;;9.38;60.21
60061;BME280;45933;51.336;12.612;2022-11-15T05:19:06;99611.31;;;9.36;60.11
60061;BME280;45933;51.336;12.612;2022-11-15T05:21:32;99612.25;;;9.28;61.33
60061;BME280;45933;51.336;12.612;2022-11-15T05:23:58;99609.63;;;9.32;60.45
60061;BME280;45933;51.336;12.612;2022-11-15T05:26:23;99606.19;;;9.30;60.35
60061;BME280;45933;51.336;12.612;2022-11-15T05:28:56;99601.84;;;9.31;60.51
60061;BME280;45933;51.336;12.612;2022-11-15T05:31:22;99599.31;;;9.23;61.11
60061;BME280;45933;51.336;12.612;2022-11-15T05:33:49;99606.22;;;9.26;60.63
60061;BME280;45933;51.336;12.612;2022-11-15T05:36:20;99600.16;;;9.24;60.75
60061;BME280;45933;51.336;12.612;2022-11-15T05:38:47;99597.56;;;9.22;60.90
60061;BME280;45933;51.336;12.612;2022-11-15T05:41:14;99595.00;;;9.19;61.19
60061;BME280;45933;51.336;12.612;2022-11-15T05:43:42;99600.19;;;9.19;60.61
60061;BME280;45933;51.336;12.612;2022-11-15T05:46:08;99594.19;;;9.11;61.00
60061;BME280;45933;51.336;12.612;2022-11-15T05:48:35;99589.84;;;9.13;60.88
60061;BME280;45933;51.336;12.612;2022-11-15T05:51:02;99591.59;;;9.12;60.55
60061;BME280;45933;51.336;12.612;2022-11-15T05:53:30;99592.44;;;9.13;60.65
60061;BME280;45933;51.336;12.612;2022-11-15T05:55:55;99593.38;;;9.07;60.79
60061;BME280;45933;51.336;12.612;2022-11-15T05:58:21;99595.13;;;9.04;60.54
60061;BME280;45933;51.336;12.612;2022-11-15T06:00:46;99594.28;;;9.02;60.84
60061;BME280;45933;51.336;12.612;2022-11-15T06:03:12;99590.81;;;9.00;60.84
60061;BME280;45933;51.336;12.612;2022-11-15T06:05:39;99590.88;;;8.92;61.13
60061;BME280;45933;51.336;12.612;2022-11-15T06:08:05;99594.31;;;8.93;61.11
60061;BME280;45933;51.336;12.612;2022-11-15T06:10:30;99594.31;;;8.91;61.09
60061;BME280;45933;51.336;12.612;2022-11-15T06:12:59;99594.31;;;8.91;61.11
60061;BME280;45933;51.336;12.612;2022-11-15T06:15:25;99584.84;;;8.87;61.37
60061;BME280;45933;51.336;12.612;2022-11-15T06:17:50;99583.97;;;8.85;61.63
60061;BME280;45933;51.336;12.612;2022-11-15T06:20:15;99590.91;;;8.86;61.23
60061;BME280;45933;51.336;12.612;2022-11-15T06:22:41;99584.88;;;8.82;61.44
60061;BME280;45933;51.336;12.612;2022-11-15T06:25:06;99587.47;;;8.82;61.26
60061;BME280;45933;51.336;12.612;2022-11-15T06:27:31;99588.34;;;8.81;61.38
60061;BME280;45933;51.336;12.612;2022-11-15T06:29:57;99586.59;;;8.80;61.35
60061;BME280;45933;51.336;12.612;2022-11-15T06:32:22;99590.94;;;8.78;61.86
60061;BME280;45933;51.336;12.612;2022-11-15T06:34:47;99587.47;;;8.78;62.03
60061;BME280;45933;51.336;12.612;2022-11-15T06:37:13;99584.00;;;8.79;61.58
60061;BME280;45933;51.336;12.612;2022-11-15T06:39:38;99580.56;;;8.78;61.67
60061;BME280;45933;51.336;12.612;2022-11-15T06:42:03;99592.69;;;8.76;61.66
60061;BME280;45933;51.336;12.612;2022-11-15T06:44:29;99595.31;;;8.76;61.59
60061;BME280;45933;51.336;12.612;2022-11-15T06:46:54;99599.66;;;8.73;62.18
60061;BME280;45933;51.336;12.612;2022-11-15T06:49:19;99595.31;;;8.76;61.87
60061;BME280;45933;51.336;12.612;2022-11-15T06:51:44;99599.63;;;8.74;61.97
60061;BME280;45933;51.336;12.612;2022-11-15T06:54:10;99603.94;;;8.75;61.73
60061;BME280;45933;51.336;12.612;2022-11-15T06:56:35;99597.91;;;8.73;61.74
60061;BME280;45933;51.336;12.612;2022-11-15T06:59:00;99605.72;;;8.72;62.27
60061;BME280;45933;51.336;12.612;2022-11-15T07:01:26;99608.28;;;8.76;61.60
60061;BME280;45933;51.336;12.612;2022-11-15T07:03:51;99604.81;;;8.77;61.95
60061;BME280;45933;51.336;12.612;2022-11-15T07:06:16;99602.22;;;8.77;61.96
60061;BME280;45933;51.336;12.612;2022-11-15T07:08:42;99608.25;;;8.79;61.85
60061;BME280;45933;51.336;12.612;2022-11-15T07:11:08;99606.53;;;8.80;62.18
60061;BME280;45933;51.336;12.612;2022-11-15T07:13:35;99602.19;;;8.82;62.34
60061;BME280;45933;51.336;12.612;2022-11-15T07:16:05;99612.56;;;8.85;62.48
60061;BME280;45933;51.336;12.612;2022-11-15T07:18:34;99614.25;;;8.90;62.05
60061;BME280;45933;51.336;12.612;2022-11-15T07:21:03;99611.66;;;8.89;62.55
60061;BME280;45933;51.336;12.612;2022-11-15T07:23:29;99610.81;;;8.92;62.20
60061;BME280;45933;51.336;12.612;2022-11-15T07:25:57;99611.63;;;8.98;62.22
60061;BME280;45933;51.336;12.612;2022-11-15T07:28:22;99610.75;;;8.99;62.47
60061;BME280;45933;51.336;12.612;2022-11-15T07:30:48;99606.34;;;9.09;62.07
60061;BME280;45933;51.336;12.612;2022-11-15T07:33:13;99603.69;;;9.12;62.01
60061;BME280;45933;51.336;12.612;2022-11-15T07:35:38;99607.13;;;9.23;61.67
60061;BME280;45933;51.336;12.612;2022-11-15T07:38:04;99608.81;;;9.29;61.41
60061;BME280;45933;51.336;12.612;2022-11-15T07:40:30;99607.88;;;9.34;61.41
60061;BME280;45933;51.336;12.612;2022-11-15T07:43:04;99608.63;;;9.47;61.45
60061;BME280;45933;51.336;12.612;2022-11-15T07:45:30;99613.75;;;9.56;61.31
60061;BME280;45933;51.336;12.612;2022-11-15T07:47:59;99616.19;;;9.76;61.73
60061;BME280;45933;51.336;12.612;2022-11-15T07:50:25;99614.13;;;10.07;61.06
60061;BME280;45933;51.336;12.612;2022-11-15T07:52:58;99606.63;;;10.54;61.41
60061;BME280;45933;51.336;12.612;2022-11-15T07:55:25;99606.00;;;10.99;59.88
60061;BME280;45933;51.336;12.612;2022-11-15T07:57:51;99599.13;;;11.48;58.82
60061;BME280;45933;51.336;12.612;2022-11-15T08:00:17;99601.72;;;12.00;57.46
60061;BME280;45933;51.336;12.612;2022-11-15T08:02:42;99600.72;;;12.51;56.57
60061;BME280;45933;51.336;12.612;2022-11-15T08:05:08;99589.34;;;12.92;53.41
60061;BME280;45933;51.336;12.612;2022-11-15T08:07:34;99602.94;;;13.45;54.14
60061;BME280;45933;51.336;12.612;2022-11-15T08:09:59;99601.09;;;13.83;51.14
60061;BME280;45933;51.336;12.612;2022-11-15T08:12:27;99598.19;;;14.25;50.84
60061;BME280;45933;51.336;12.612;2022-11-15T08:14:54;99593.34;;;14.72;49.84
60061;BME280;45933;51.336;12.612;2022-11-15T08:17:20;99590.47;;;15.07;48.85
60061;BME280;45933;51.336;12.612;2022-11-15T08:19:45;99594.44;;;15.47;48.22
60061;BME280;45933;51.336;12.612;2022-11-15T08:22:11;99591.41;;;15.59;46.45
60061;BME280;45933;51.336;12.612;2022-11-15T08:24:36;99594.38;;;15.77;45.82
60061;BME280;45933;51.336;12.612;2022-11-15T08:27:01;99584.38;;;15.86;45.24
60061;BME280;45933;51.336;12.612;2022-11-15T08:29:27;99586.19;;;16.09;44.84
60061;BME280;45933;51.336;12.612;2022-11-15T08:31:54;99584.28;;;16.13;43.84
60061;BME280;45933;51.336;12.612;2022-11-15T08:34:20;99585.00;;;16.41;44.45
60061;BME280;45933;51.336;12.612;2022-11-15T08:36:46;99585.16;;;16.60;44.19
60061;BME280;45933;51.336;12.612;2022-11-15T08:39:11;99580.75;;;16.61;41.68
60061;BME280;45933;51.336;12.612;2022-11-15T08:41:37;99580.84;;;16.83;42.42
60061;BME280;45933;51.336;12.612;2022-11-15T08:44:03;99588.84;;;17.02;42.45
60061;BME280;45933;51.336;12.612;2022-11-15T08:46:29;99581.09;;;17.20;42.78
60061;BME280;45933;51.336;12.612;2022-11-15T08:48:54;99587.97;;;17.45;42.84
60061;BME280;45933;51.336;12.612;2022-11-15T08:51:19;99579.81;;;17.73;42.15
60061;BME280;45933;51.336;12.612;2022-11-15T08:53:45;99582.81;;;18.05;42.03
60061;BME280;45933;51.336;12.612;2022-11-15T08:56:12;99579.31;;;18.04;40.25
60061;BME280;45933;51.336;12.612;2022-11-15T08:58:37;99572.53;;;18.38;39.67
60061;BME280;45933;51.336;12.612;2022-11-15T09:01:03;99563.25;;;18.48;39.50
60061;BME280;45933;51.336;12.612;2022-11-15T09:03:29;99571.34;;;18.83;40.19
60061;BME280;45933;51.336;12.612;2022-11-15T09:05:59;99565.03;;;19.04;38.04
60061;BME280;45933;51.336;12.612;2022-11-15T09:08:28;99564.75;;;19.27;38.62
60061;BME280;45933;51.336;12.612;2022-11-15T09:10:54;99560.19;;;19.48;37.87
60061;BME280;45933;51.336;12.612;2022-11-15T09:13:19;99554.47;;;19.75;38.60
60061;BME280;45933;51.336;12.612;2022-11-15T09:15:45;99554.44;;;19.92;38.39
60061;BME280;45933;51.336;12.612;2022-11-15T09:18:10;99558.28;;;20.20;37.46
60061;BME280;45933;51.336;12.612;2022-11-15T09:20:35;99557.53;;;20.33;37.02
60061;BME280;45933;51.336;12.612;2022-11-15T09:23:01;99558.03;;;20.57;36.30
60061;BME280;45933;51.336;12.612;2022-11-15T09:25:28;99548.91;;;20.79;36.29
60061;BME280;45933;51.336;12.612;2022-11-15T09:27:54;99547.50;;;20.87;35.35
60061;BME280;45933;51.336;12.612;2022-11-15T09:30:19;99547.59;;;20.86;34.05
60061;BME280;45933;51.336;12.612;2022-11-15T09:32:44;99538.44;;;21.07;34.40
60061;BME280;45933;51.336;12.612;2022-11-15T09:35:10;99543.81;;;21.22;34.37
60061;BME280;45933;51.336;12.612;2022-11-15T09:37:35;99541.41;;;21.17;34.00
60061;BME280;45933;51.336;12.612;2022-11-15T09:40:01;99543.97;;;21.19;34.12
60061;BME280;45933;51.336;12.612;2022-11-15T09:51:21;99540.44;;;21.64;33.75
60061;BME280;45933;51.336;12.612;2022-11-15T09:54:03;99537.47;;;21.84;32.75
60061;BME280;45933;51.336;12.612;2022-11-15T09:56:31;99537.09;;;22.05;33.36
60061;BME280;45933;51.336;12.612;2022-11-15T10:01:53;99536.78;;;22.66;32.30
60061;BME280;45933;51.336;12.612;2022-11-15T10:04:23;99526.84;;;22.83;32.17
60061;BME280;45933;51.336;12.612;2022-11-15T10:06:58;99532.38;;;23.21;32.10
60061;BME280;45933;51.336;12.612;2022-11-15T10:09:31;99520.47;;;23.39;31.38
60061;BME280;45933;51.336;12.612;2022-11-15T10:12:00;99522.84;;;23.57;30.65
60061;BME280;45933;51.336;12.612;2022-11-15T10:14:27;99511.53;;;23.80;30.47
60061;BME280;45933;51.336;12.612;2022-11-15T10:17:38;99506.59;;;24.25;31.99
60061;BME280;45933;51.336;12.612;2022-11-15T10:20:20;99499.25;;;24.16;30.61
60061;BME280;45933;51.336;12.612;2022-11-15T10:25:18;99500.56;;;24.60;30.01
60061;BME280;45933;51.336;12.612;2022-11-15T10:27:50;99490.56;;;24.50;28.79
60061;BME280;45933;51.336;12.612;2022-11-15T10:30:18;99487.88;;;24.87;29.22
60061;BME280;45933;51.336;12.612;2022-11-15T10:32:46;99491.50;;;24.86;28.31
60061;BME280;45933;51.336;12.612;2022-11-15T10:37:48;99487.34;;;25.30;28.72
60061;BME280;45933;51.336;12.612;2022-11-15T10:40:22;99490.47;;;25.59;29.06
60061;BME280;45933;51.336;12.612;2022-11-15T10:42:49;99486.84;;;25.60;27.43
60061;BME280;45933;51.336;12.612;2022-11-15T10:45:30;99484.00;;;25.86;27.59
60061;BME280;45933;51.336;12.612;2022-11-15T10:48:20;99476.34;;;26.15;28.35
60061;BME280;45933;51.336;12.612;2022-11-15T10:50:48;99475.38;;;25.93;26.74
60061;BME280;45933;51.336;12.612;2022-11-15T10:53:41;99474.16;;;25.86;26.80
60061;BME280;45933;51.336;12.612;2022-11-15T10:56:13;99474.09;;;25.52;27.09
60061;BME280;45933;51.336;12.612;2022-11-15T10:58:50;99469.59;;;25.53;28.40
60061;BME280;45933;51.336;12.612;2022-11-15T11:01:18;99466.16;;;25.40;27.82
60061;BME280;45933;51.336;12.612;2022-11-15T11:04:05;99462.09;;;25.47;27.93
60061;BME280;45933;51.336;12.612;2022-11-15T11:06:56;99461.44;;;25.32;27.03
60061;BME280;45933;51.336;12.612;2022-11-15T11:09:39;99467.16;;;25.50;27.44
60061;BME280;45933;51.336;12.612;2022-11-15T11:12:10;99459.28;;;25.48;27.21
60061;BME280;45933;51.336;12.612;2022-11-15T11:14:38;99453.59;;;25.07;27.08
60061;BME280;45933;51.336;12.612;2022-11-15T11:17:20;99455.28;;;25.08;27.94
60061;BME280;45933;51.336;12.612;2022-11-15T11:22:32;99439.97;;;24.74;28.81
60061;BME280;45933;51.336;12.612;2022-11-15T11:25:35;99432.50;;;24.80;29.55
60061;BME280;45933;51.336;12.612;2022-11-15T11:34:02;99421.88;;;24.91;29.12
60061;BME280;45933;51.336;12.612;2022-11-15T11:36:57;99422.00;;;24.65;28.46
60061;BME280;45933;51.336;12.612;2022-11-15T11:39:45;99410.44;;;24.54;29.55
60061;BME280;45933;51.336;12.612;2022-11-15T11:47:22;99410.31;;;24.55;28.96
60061;BME280;45933;51.336;12.612;2022-11-15T11:49:51;99402.44;;;24.54;27.97
60061;BME280;45933;51.336;12.612;2022-11-15T11:52:23;99396.66;;;24.84;28.85
60061;BME280;45933;51.336;12.612;2022-11-15T11:55:20;99396.81;;;25.04;29.67
60061;BME280;45933;51.336;12.612;2022-11-15T12:00:23;99382.13;;;25.56;27.95
60061;BME280;45933;51.336;12.612;2022-11-15T12:03:05;99375.50;;;25.96;26.96
60061;BME280;45933;51.336;12.612;2022-11-15T12:05:43;99381.38;;;26.33;27.84
60061;BME280;45933;51.336;12.612;2022-11-15T12:08:22;99373.78;;;26.61;26.89
60061;BME280;45933;51.336;12.612;2022-11-15T12:10:55;99374.84;;;26.90;26.18
60061;BME280;45933;51.336;12.612;2022-11-15T12:13:26;99366.88;;;27.11;25.78
60061;BME280;45933;51.336;12.612;2022-11-15T12:16:01;99351.09;;;27.39;26.45
60061;BME280;45933;51.336;12.612;2022-11-15T12:18:28;99356.81;;;27.55;25.29
60061;BME280;45933;51.336;12.612;2022-11-15T12:20:58;99355.22;;;27.73;25.28
60061;BME280;45933;51.336;12.612;2022-11-15T12:23:29;99356.13;;;27.93;25.17
60061;BME280;45933;51.336;12.612;2022-11-15T12:26:01;99353.78;;;28.09;24.22
60061;BME280;45933;51.336;12.612;2022-11-15T12:31:03;99341.88;;;28.33;24.65
60061;BME280;45933;51.336;12.612;2022-11-15T12:36:03;99337.34;;;28.33;23.93
60061;BME280;45933;51.336;12.612;2022-11-15T12:38:53;99333.84;;;28.43;23.73
60061;BME280;45933;51.336;12.612;2022-11-15T12:41:20;99333.84;;;28.33;23.85
60061;BME280;45933;51.336;12.612;2022-11-15T12:43:47;99333.34;;;28.18;23.47
60061;BME280;45933;51.336;12.612;2022-11-15T12:51:12;99329.25;;;28.14;24.07
60061;BME280;45933;51.336;12.612;2022-11-15T12:53:37;99317.00;;;28.21;24.42
60061;BME280;45933;51.336;12.612;2022-11-15T12:58:55;99310.25;;;28.46;24.27
60061;BME280;45933;51.336;12.612;2022-11-15T13:14:54;99293.59;;;28.72;23.05
60061;BME280;45933;51.336;12.612;2022-11-15T13:19:59;99289.59;;;29.05;23.81
60061;BME280;45933;51.336;12.612;2022-11-15T13:22:27;99296.94;;;28.93;23.20
60061;BME280;45933;51.336;12.612;2022-11-15T13:25:19;99289.72;;;29.13;23.32
60061;BME280;45933;51.336;12.612;2022-11-15T13:27:50;99284.69;;;29.00;23.10
60061;BME280;45933;51.336;12.612;2022-11-15T13:30:21;99286.03;;;29.14;23.05
60061;BME280;45933;51.336;12.612;2022-11-15T13:32:47;99286.47;;;29.09;22.61
60061;BME280;45933;51.336;12.612;2022-11-15T13:35:28;99287.28;;;29.20;23.00
60061;BME280;45933;51.336;12.612;2022-11-15T13:37:55;99280.44;;;29.07;22.71
60061;BME280;45933;51.336;12.612;2022-11-15T13:42:48;99280.59;;;28.77;22.49
60061;BME280;45933;51.336;12.612;2022-11-15T13:45:16;99278.81;;;28.48;22.66
60061;BME280;45933;51.336;12.612;2022-11-15T13:47:42;99276.66;;;28.23;23.17
60061;BME280;45933;51.336;12.612;2022-11-15T13:50:14;99277.22;;;27.97;23.40
60061;BME280;45933;51.336;12.612;2022-11-15T13:52:43;99270.75;;;27.59;23.68
60061;BME280;45933;51.336;12.612;2022-11-15T13:55:15;99264.41;;;27.20;23.99
60061;BME280;45933;51.336;12.612;2022-11-15T13:57:51;99271.41;;;26.91;24.29
60061;BME280;45933;51.336;12.612;2022-11-15T14:00:33;99263.34;;;26.60;24.82
60061;BME280;45933;51.336;12.612;2022-11-15T14:03:20;99258.72;;;26.30;25.35
60061;BME280;45933;51.336;12.612;2022-11-15T14:06:13;99260.41;;;26.10;25.66
60061;BME280;45933;51.336;12.612;2022-11-15T14:11:29;99252.81;;;25.72;26.28
60061;BME280;45933;51.336;12.612;2022-11-15T14:16:54;99249.81;;;25.65;26.65
60061;BME280;45933;51.336;12.612;2022-11-15T14:22:07;99240.25;;;25.40;26.72
60061;BME280;45933;51.336;12.612;2022-11-15T14:24:33;99245.22;;;25.00;27.37
60061;BME280;45933;51.336;12.612;2022-11-15T14:27:25;99241.09;;;24.96;27.49
60061;BME280;45933;51.336;12.612;2022-11-15T14:29:51;99247.28;;;24.50;28.30
60061;BME280;45933;51.336;12.612;2022-11-15T14:32:20;99248.63;;;24.20;28.94
60061;BME280;45933;51.336;12.612;2022-11-15T14:34:49;99249.31;;;23.87;29.37
60061;BME280;45933;51.336;12.612;2022-11-15T14:37:30;99252.81;;;23.51;29.88
60061;BME280;45933;51.336;12.612;2022-11-15T14:40:03;99243.94;;;23.14;30.41
60061;BME280;45933;51.336;12.612;2022-11-15T14:42:29;99250.63;;;22.81;30.90
60061;BME280;45933;51.336;12.612;2022-11-15T14:44:54;99240.94;;;22.55;31.06
60061;BME280;45933;51.336;12.612;2022-11-15T14:47:20;99242.16;;;22.24;31.86
60061;BME280;45933;51.336;12.612;2022-11-15T14:49:45;99236.66;;;22.00;31.83
60061;BME280;45933;51.336;12.612;2022-11-15T14:52:28;99233.81;;;21.76;31.70